Scottish Airport Reports

Civil airfields updated at H+20 and H+50
RAF airfields updated at H+50 only

EGPD - Aberdeen
Distance from station: NNE 19mi, 31km
Updated: 22/09/2017 10:20
Clear
Clear
 Wind from S
Wind: S 9 mph , 15 km/h
Temperature: 11°C
Dew Point: 10°C
Humidity: 94%
Barometer: 1016 hPa
Clouds: Clear
Visibility: 6 miles , 10 km
2017/09/22 09:20 EGPD 220920Z AUTO 17008KT 9999 NCD 11/10 Q1016 NOSIG
EGPN - Dundee
Distance from station: SW 41mi, 66km
Updated: 22/09/2017 10:20
Few Clouds
Few Clouds
 Wind from ENE
Wind: ENE 5 mph , 7 km/h
Temperature: 12°C
Dew Point: 10°C
Humidity: 88%
Barometer: 1016 hPa
Clouds: Few Clouds
Visibility: 6 miles , 10 km
Cloud details: Few Clouds 1500 ft
2017/09/22 09:20 EGPN 220920Z 07004KT 9999 FEW015 12/10 Q1016
 
EGQS - RAF Lossiemouth
Distance from station: NNW 63mi, 102km
Updated: 22/09/2017 09:50
Mostly cloudy
Mostly cloudy
 Wind from ESE
Wind: ESE 5 mph , 7 km/h
Temperature: 10°C
Wind Chill: 9°C
Dew Point: 7°C
Humidity: 82%
Barometer: 1014 hPa
Clouds: Mostly cloudy
Visibility: 6 miles , 10 km
Cloud details: Few Clouds 3000 ft
Partly cloudy 13000 ft
Mostly cloudy 25000 ft
2017/09/22 08:50 EGQS 220850Z 11004KT 9999 FEW030 SCT130 BKN250 10/07 Q1014 BLU NOSIG
EGPE - Inverness
Distance from station: WNW 73mi, 117km
Updated: 22/09/2017 10:20
Few Clouds
Few Clouds
 Wind from SSW
Wind: SSW 12 mph , 19 km/h
Temperature: 11°C
Dew Point: 8°C
Humidity: 82%
Barometer: 1014 hPa
Clouds: Few Clouds
Visibility: 6 miles , 10 km
Cloud details: Few Clouds 2500 ft
2017/09/22 09:20 EGPE 220920Z 20010KT 160V230 9999 FEW025 11/08 Q1014
 
EGPH - Edinburgh
Distance from station: SSW 77mi, 125km
Updated: 22/09/2017 10:20
Few Clouds
Few Clouds
 Wind from SSE
Wind: SSE 8 mph , 13 km/h
Temperature: 13°C
Dew Point: 9°C
Humidity: 77%
Barometer: 1015 hPa
Clouds: Few Clouds
Visibility: 6 miles , 10 km
Cloud details: Few Clouds 2400 ft
2017/09/22 09:20 EGPH 220920Z 15007KT 110V180 9999 FEW024 13/09 Q1015
EGPC - Wick
Distance from station: NNW 107mi, 172km
Updated: 22/09/2017 10:20
Few Clouds
Few Clouds
 Wind from SE
Wind: SE 8 mph , 13 km/h
Temperature: 12°C
Dew Point: 10°C
Humidity: 88%
Barometer: 1015 hPa
Clouds: Few Clouds
Visibility: 6 miles , 10 km
Cloud details: Few Clouds 800 ft
2017/09/22 09:20 EGPC 220920Z 14007KT 9999 FEW008 12/10 Q1015
 
EGPF - Glasgow
Distance from station: SW 107mi, 172km
Updated: 22/09/2017 10:20
Thunderstorm
Thunderstorm
 Wind from ESE
Wind: ESE 10 mph , 17 km/h
Temperature: 13°C
Dew Point: 10°C
Humidity: 82%
Barometer: 1014 hPa
Clouds: Thunderstorm
Visibility: 6 miles , 10 km
2017/09/22 09:20 EGPF 220920Z AUTO 11009KT 080V160 9999 //////TCU 13/10 Q1014
EGPK - Prestwick
Distance from station: SW 130mi, 209km
Updated: 22/09/2017 10:20
Few Clouds
Few Clouds
 Wind from SE
Wind: SE 12 mph , 19 km/h
Temperature: 13°C
Dew Point: 10°C
Humidity: 82%
Barometer: 1013 hPa
Clouds: Few Clouds
Visibility: 6 miles , 10 km
Cloud details: Few Clouds 1500 ft
2017/09/22 09:20 EGPK 220920Z 14010KT 9999 FEW015 13/10 Q1013
 
EGPA - Kirkwall, Orkney
Distance from station: N 140mi, 225km
Updated: 22/09/2017 10:20
Few Clouds
Few Clouds
 Wind from SSE
Wind: SSE 13 mph , 20 km/h
Clouds: Few Clouds
Visibility: 6 miles , 10 km
Cloud details: Few Clouds 1000 ft
2017/09/22 09:20 EGPA 220920Z 15011KT 9999 FEW010 12/// Q1015
EGPO - Stornoway, Outer Hebrides
Distance from station: WNW 169mi, 273km
Updated: 22/09/2017 10:20
Few Clouds
Few Clouds
 Wind from SSE
Wind: SSE 20 mph , 31 km/h
Temperature: 13°C
Dew Point: 9°C
Humidity: 77%
Barometer: 1011 hPa
Clouds: Few Clouds
Visibility: 6 miles , 10 km
Cloud details: Few Clouds 2200 ft
2017/09/22 09:20 EGPO 220920Z 16017KT 9999 FEW022 13/09 Q1011
 
EGPI - Islay, Inner Hebrides
Distance from station: WSW 172mi, 276km
Updated: 22/09/2017 10:20
Rain, Partly cloudy
Rain, Partly cloudy
 Wind from SE
Wind: SE 23 mph , 37 km/h
Temperature: 11°C
Dew Point: 10°C
Humidity: 94%
Barometer: 1010 hPa
Summary: Rain
Clouds: Partly cloudy
Visibility: 3 miles , 4 km
Cloud details: Partly cloudy 1000 ft
2017/09/22 09:20 EGPI 220920Z 14020KT 4200 RA SCT010 11/10 Q1010
EGPU - Tiree, Inner Hebrides
Distance from station: W 172mi, 276km
Updated: 22/09/2017 10:20
Light rain, Drizzle, Clear
Light rain, Drizzle, Clear
 Wind from SSE
Wind: SSE 24 mph , 39 km/h
Temperature: 12°C
Dew Point: 10°C
Humidity: 88%
Barometer: 1009 hPa
Summary: Light rain, Drizzle
Clouds: Clear
Visibility: 5 miles , 8 km
2017/09/22 09:20 EGPU 220920Z AUTO 15021KT 230V010 8000 -RADZ NCD 12/10 Q1009
 
EGPB - Sumburgh, Shetland
Distance from station: NNE 208mi, 332km
Updated: 22/09/2017 10:20
Partly cloudy
Partly cloudy
 Wind from S
Wind: S 9 mph , 15 km/h
Temperature: 13°C
Dew Point: 9°C
Humidity: 77%
Barometer: 1016 hPa
Clouds: Partly cloudy
Visibility: 6 miles , 10 km
Cloud details: Few Clouds 1200 ft
Partly cloudy 1800 ft
2017/09/22 09:20 EGPB 220920Z 17008KT 9999 FEW012 SCT018 13/09 Q1016
EGPM - Scatsa, Shetland
Distance from station: NNE 245mi, 392km
Updated: 22/09/2017 10:20
Few Clouds
Few Clouds
 Wind from SSE
Wind: SSE 9 mph , 15 km/h
Temperature: 12°C
Dew Point: 9°C
Humidity: 82%
Barometer: 1016 hPa
Clouds: Few Clouds
Visibility: 6 miles , 10 km
Cloud details: Few Clouds 1800 ft
2017/09/22 09:20 EGPM 220920Z 16008KT 9999 FEW018 12/09 Q1016 NOSIG
-->